createdAt,value
2018-02-24T00:01:17.621Z,93.90
2018-02-24T00:03:45.365Z,94.20
2018-02-24T00:06:12.848Z,94.10
2018-02-24T00:08:40.351Z,94.10
2018-02-24T00:11:07.831Z,94.10
2018-02-24T00:13:35.302Z,94.30
2018-02-24T00:16:02.790Z,94.40
2018-02-24T00:18:30.302Z,94.60
2018-02-24T00:20:57.890Z,94.60
2018-02-24T00:23:27.259Z,94.40
2018-02-24T00:25:55.071Z,94.50
2018-02-24T00:28:22.690Z,94.50
2018-02-24T00:30:50.419Z,94.50
2018-02-24T00:33:18.040Z,94.60
2018-02-24T00:35:45.666Z,94.60
2018-02-24T00:38:13.180Z,94.80
2018-02-24T00:40:40.697Z,95.00
2018-02-24T00:43:08.202Z,94.90
2018-02-24T00:45:35.775Z,94.70
2018-02-24T00:48:03.435Z,94.50
2018-02-24T00:50:31.041Z,94.30
2018-02-24T00:52:58.549Z,94.30
2018-02-24T00:55:26.883Z,93.70
2018-02-24T00:57:54.386Z,93.70
2018-02-24T01:00:21.917Z,93.30
2018-02-24T01:02:49.495Z,93.10
2018-02-24T01:05:17.171Z,92.70
2018-02-24T01:07:44.786Z,92.80
2018-02-24T01:10:12.275Z,92.60
2018-02-24T01:12:39.806Z,92.30
2018-02-24T01:15:07.415Z,92.10
2018-02-24T01:17:34.930Z,92.00
2018-02-24T01:20:02.436Z,91.70
2018-02-24T01:22:29.944Z,91.70
2018-02-24T01:24:57.431Z,91.10
2018-02-24T01:27:24.924Z,91.10
2018-02-24T01:29:52.422Z,91.10
2018-02-24T01:32:20.169Z,91.20
2018-02-24T01:34:47.762Z,91.00
2018-02-24T01:37:15.365Z,91.10
2018-02-24T01:39:42.894Z,91.00
2018-02-24T01:42:10.366Z,91.00
2018-02-24T01:44:37.843Z,90.70
2018-02-24T01:47:05.362Z,90.70
2018-02-24T01:49:32.840Z,90.60
2018-02-24T01:52:00.579Z,90.60
2018-02-24T01:54:28.129Z,90.50
2018-02-24T01:56:55.696Z,90.60
2018-02-24T01:59:23.276Z,90.50
2018-02-24T02:01:50.819Z,90.50
2018-02-24T02:04:18.321Z,90.70
2018-02-24T02:06:45.927Z,90.70
2018-02-24T02:09:13.411Z,90.60
2018-02-24T02:11:40.961Z,90.50
2018-02-24T02:14:08.464Z,90.50
2018-02-24T02:16:35.938Z,90.60
2018-02-24T02:19:03.420Z,90.40
2018-02-24T02:21:30.907Z,90.50
2018-02-24T02:23:58.397Z,90.30
2018-02-24T02:26:25.874Z,90.20
2018-02-24T02:28:53.366Z,90.30
2018-02-24T02:31:20.834Z,90.30
2018-02-24T02:33:48.341Z,90.30
2018-02-24T02:36:15.815Z,90.20
2018-02-24T02:38:43.285Z,90.00
2018-02-24T02:41:10.754Z,90.10
2018-02-24T02:43:38.622Z,90.10
2018-02-24T02:46:06.978Z,90.30
2018-02-24T02:48:34.553Z,90.30
2018-02-24T02:51:02.073Z,90.20
2018-02-24T02:53:29.652Z,89.80
2018-02-24T02:55:57.202Z,90.00
2018-02-24T02:58:26.560Z,90.00
2018-02-24T03:00:54.051Z,90.00
2018-02-24T03:03:21.509Z,89.90
2018-02-24T03:05:48.988Z,90.00
2018-02-24T03:08:16.483Z,90.20
2018-02-24T03:10:43.998Z,90.20
2018-02-24T03:13:11.547Z,90.30
2018-02-24T03:15:39.148Z,90.20
2018-02-24T03:18:06.808Z,90.20
2018-02-24T03:20:34.378Z,90.30
2018-02-24T03:23:01.854Z,90.40
2018-02-24T03:25:29.340Z,90.40
2018-02-24T03:27:56.802Z,90.40
2018-02-24T03:30:24.288Z,90.40
2018-02-24T03:32:52.555Z,90.50
2018-02-24T03:35:20.011Z,90.50
2018-02-24T03:37:47.478Z,90.60
2018-02-24T03:40:14.959Z,90.80
2018-02-24T03:42:42.417Z,90.90
2018-02-24T03:45:09.902Z,91.00
2018-02-24T03:47:37.405Z,90.90
2018-02-24T03:50:04.912Z,91.10
2018-02-24T03:52:32.422Z,91.10
2018-02-24T03:54:59.885Z,90.90
2018-02-24T03:57:27.363Z,91.00
2018-02-24T03:59:54.861Z,90.90
2018-02-24T04:02:22.356Z,91.10
2018-02-24T04:04:49.827Z,90.90
2018-02-24T04:07:18.126Z,90.90
2018-02-24T04:09:45.615Z,90.90
2018-02-24T04:12:13.106Z,91.30
2018-02-24T04:14:41.464Z,91.40
2018-02-24T04:17:09.002Z,91.40
2018-02-24T04:19:36.498Z,91.40
2018-02-24T04:22:03.965Z,91.30
2018-02-24T04:24:31.493Z,91.30
2018-02-24T04:26:59.054Z,91.60
2018-02-24T04:29:26.543Z,91.80
2018-02-24T04:31:53.993Z,92.20
2018-02-24T04:34:22.269Z,92.40
2018-02-24T04:36:49.742Z,92.40
2018-02-24T04:39:17.231Z,92.50
2018-02-24T04:41:44.729Z,92.60
2018-02-24T04:44:12.215Z,92.60
2018-02-24T04:46:39.670Z,92.60
2018-02-24T04:49:07.120Z,92.60
2018-02-24T04:51:35.354Z,92.90
2018-02-24T04:54:02.805Z,92.90
2018-02-24T04:56:30.261Z,93.00
2018-02-24T04:58:57.720Z,93.30
2018-02-24T05:01:25.185Z,93.30
2018-02-24T05:03:52.637Z,93.60
2018-02-24T05:06:20.094Z,93.60
2018-02-24T05:08:47.581Z,94.00
2018-02-24T05:11:15.045Z,94.20
2018-02-24T05:13:42.490Z,94.40
2018-02-24T05:16:10.182Z,95.10
2018-02-24T05:18:38.434Z,96.50
2018-02-24T05:21:05.919Z,96.50
2018-02-24T05:23:33.394Z,96.80
2018-02-24T05:26:00.858Z,97.10
2018-02-24T05:28:28.312Z,97.30
2018-02-24T05:30:55.793Z,97.20
2018-02-24T05:33:23.277Z,97.20
2018-02-24T05:35:52.173Z,97.30
2018-02-24T05:38:19.642Z,97.30
2018-02-24T05:40:47.151Z,97.30
2018-02-24T05:43:14.633Z,97.40
2018-02-24T05:45:42.090Z,97.50
2018-02-24T05:48:09.605Z,97.40
2018-02-24T05:50:37.845Z,97.30
2018-02-24T05:53:05.329Z,97.30
2018-02-24T05:55:32.787Z,97.40
2018-02-24T05:58:00.298Z,97.40
2018-02-24T06:00:28.573Z,97.50
2018-02-24T06:02:56.111Z,97.50
2018-02-24T06:05:23.587Z,97.60
2018-02-24T06:07:51.062Z,97.50
2018-02-24T06:10:18.547Z,97.60
2018-02-24T06:12:45.992Z,97.60
2018-02-24T06:15:13.475Z,97.50
2018-02-24T06:17:40.956Z,97.40
2018-02-24T06:20:08.429Z,97.40
2018-02-24T06:22:35.946Z,97.60
2018-02-24T06:25:03.445Z,97.70
2018-02-24T06:27:30.909Z,97.80
2018-02-24T06:29:59.184Z,98.10
2018-02-24T06:32:26.710Z,98.10
2018-02-24T06:34:54.220Z,98.30
2018-02-24T06:37:21.800Z,98.30
2018-02-24T06:39:49.319Z,98.40
2018-02-24T06:42:17.566Z,98.70
2018-02-24T06:44:45.046Z,98.70
2018-02-24T06:47:12.526Z,98.70
2018-02-24T06:49:39.965Z,98.70
2018-02-24T06:52:08.223Z,98.60
2018-02-24T06:54:35.710Z,98.60
2018-02-24T06:57:04.138Z,98.60
2018-02-24T06:59:31.537Z,98.70
2018-02-24T07:01:59.011Z,98.50
2018-02-24T07:04:26.498Z,98.40
2018-02-24T07:06:54.001Z,98.30
2018-02-24T07:09:22.284Z,98.00
2018-02-24T07:11:49.752Z,97.90
2018-02-24T07:14:18.017Z,97.30
2018-02-24T07:16:45.491Z,97.30
2018-02-24T07:19:13.002Z,97.40
2018-02-24T07:21:40.485Z,97.30
2018-02-24T07:24:08.736Z,97.10
2018-02-24T07:26:36.222Z,96.80
2018-02-24T07:29:03.785Z,96.70
2018-02-24T07:31:31.261Z,96.50
2018-02-24T07:33:58.722Z,96.20
2018-02-24T07:36:26.164Z,95.80
2018-02-24T07:38:53.708Z,95.20
2018-02-24T07:41:21.186Z,94.30
2018-02-24T07:43:50.677Z,93.50
2018-02-24T07:46:18.187Z,93.20
2018-02-24T07:48:45.666Z,92.50
2018-02-24T07:51:13.145Z,91.50
2018-02-24T07:53:40.588Z,91.70
2018-02-24T07:56:08.062Z,92.10
2018-02-24T07:58:35.579Z,91.70
2018-02-24T08:01:03.074Z,90.50
2018-02-24T08:03:31.301Z,86.80
2018-02-24T08:05:58.771Z,86.80
2018-02-24T08:08:26.257Z,86.00
2018-02-24T08:10:54.493Z,84.40
2018-02-24T08:13:21.963Z,84.40
2018-02-24T08:15:49.429Z,84.30
2018-02-24T08:18:16.885Z,83.90
2018-02-24T08:20:44.358Z,82.70
2018-02-24T08:23:11.814Z,81.10
2018-02-24T08:25:40.062Z,80.20
2018-02-24T08:28:07.549Z,80.10
2018-02-24T08:30:35.018Z,79.70
2018-02-24T08:33:03.241Z,80.70
2018-02-24T08:35:30.714Z,80.70
2018-02-24T08:37:58.193Z,81.80
2018-02-24T08:40:26.269Z,82.20
2018-02-24T08:42:54.502Z,83.20
2018-02-24T08:45:21.974Z,83.10
2018-02-24T08:47:49.535Z,85.20
2018-02-24T08:50:16.991Z,85.70
2018-02-24T08:52:44.479Z,83.90
2018-02-24T08:55:12.753Z,85.40
2018-02-24T08:57:40.261Z,85.30
2018-02-24T09:00:07.768Z,86.50
2018-02-24T09:02:35.307Z,86.60
2018-02-24T09:05:02.802Z,87.10
2018-02-24T09:07:30.301Z,88.20
2018-02-24T09:09:57.783Z,87.50
2018-02-24T09:12:25.249Z,87.90
2018-02-24T09:14:52.757Z,88.30
2018-02-24T09:17:20.269Z,89.00
2018-02-24T09:19:48.505Z,89.80
2018-02-24T09:22:15.965Z,89.80
2018-02-24T09:24:43.470Z,89.70
2018-02-24T09:27:11.702Z,90.00
2018-02-24T09:29:40.150Z,90.00
2018-02-24T09:32:07.626Z,90.20
2018-02-24T09:34:35.110Z,90.60
2018-02-24T09:37:02.604Z,90.20
2018-02-24T09:39:30.069Z,89.60
2018-02-24T09:41:57.569Z,88.50
2018-02-24T09:44:25.060Z,87.70
2018-02-24T09:46:52.605Z,86.80
2018-02-24T09:49:20.280Z,86.10
2018-02-24T09:51:48.882Z,83.80
2018-02-24T09:54:16.348Z,81.90
2018-02-24T09:56:43.842Z,81.90
2018-02-24T09:59:11.303Z,81.40
2018-02-24T10:01:38.765Z,79.80
2018-02-24T10:04:06.244Z,80.30
2018-02-24T10:06:33.726Z,78.30
2018-02-24T10:09:01.183Z,77.50
2018-02-24T10:11:28.668Z,76.80
2018-02-24T10:13:56.157Z,76.80
2018-02-24T10:16:23.635Z,77.10
2018-02-24T10:18:51.897Z,75.30
2018-02-24T10:21:19.341Z,75.30
2018-02-24T10:23:46.802Z,74.80
2018-02-24T10:26:14.281Z,74.80
2018-02-24T10:28:41.724Z,73.30
2018-02-24T10:31:09.185Z,72.70
2018-02-24T10:33:37.435Z,69.10
2018-02-24T10:36:04.897Z,68.90
2018-02-24T10:38:32.414Z,69.10
2018-02-24T10:40:59.906Z,68.80
2018-02-24T10:43:27.370Z,67.50
2018-02-24T10:45:54.853Z,65.60
2018-02-24T10:48:22.318Z,63.50
2018-02-24T10:50:49.782Z,62.80
2018-02-24T10:53:17.276Z,61.90
2018-02-24T10:55:44.743Z,60.20
2018-02-24T10:58:12.269Z,62.20
2018-02-24T11:00:39.712Z,62.00
2018-02-24T11:03:08.230Z,63.80
2018-02-24T11:05:35.718Z,63.80
2018-02-24T11:08:03.214Z,62.50
2018-02-24T11:10:30.682Z,61.70
2018-02-24T11:12:58.158Z,58.80
2018-02-24T11:15:25.768Z,59.40
2018-02-24T11:17:53.226Z,62.00
2018-02-24T11:20:20.678Z,62.70
2018-02-24T11:22:48.897Z,62.00
2018-02-24T11:25:16.382Z,62.00
2018-02-24T11:27:43.851Z,61.90
2018-02-24T11:30:11.326Z,61.10
2018-02-24T11:32:38.786Z,62.30
2018-02-24T11:35:06.238Z,61.10
2018-02-24T11:37:34.461Z,60.20
2018-02-24T11:40:01.911Z,60.20
2018-02-24T11:42:29.378Z,62.70
2018-02-24T11:44:56.838Z,62.50
2018-02-24T11:47:24.298Z,62.90
2018-02-24T11:49:51.774Z,62.30
2018-02-24T11:52:19.253Z,63.20
2018-02-24T11:54:46.722Z,62.40
2018-02-24T11:57:14.942Z,63.10
2018-02-24T11:59:42.457Z,63.00
2018-02-24T12:02:09.979Z,63.10
2018-02-24T12:04:37.479Z,61.70
2018-02-24T12:07:04.948Z,62.10
2018-02-24T12:09:32.390Z,62.90
2018-02-24T12:12:00.653Z,63.30
2018-02-24T12:14:28.900Z,63.20
2018-02-24T12:16:56.362Z,63.20
2018-02-24T12:19:23.845Z,63.90
2018-02-24T12:21:52.104Z,64.20
2018-02-24T12:24:19.563Z,64.10
2018-02-24T12:26:47.032Z,64.30
2018-02-24T12:29:14.504Z,63.20
2018-02-24T12:31:42.717Z,62.70
2018-02-24T12:34:10.172Z,62.70
2018-02-24T12:36:37.626Z,63.10
2018-02-24T12:39:05.122Z,63.70
2018-02-24T12:41:32.578Z,61.70
2018-02-24T12:44:00.092Z,62.10
2018-02-24T12:46:27.630Z,63.00
2018-02-24T12:48:55.144Z,62.70
2018-02-24T12:51:22.577Z,63.00
2018-02-24T12:53:50.031Z,61.70
2018-02-24T12:56:17.480Z,61.60
2018-02-24T12:58:44.953Z,61.60
2018-02-24T13:01:12.409Z,61.70
2018-02-24T13:03:40.851Z,62.10
2018-02-24T13:06:08.345Z,60.50
2018-02-24T13:08:35.825Z,58.00
2018-02-24T13:11:03.255Z,57.90
2018-02-24T13:13:30.705Z,57.10
2018-02-24T13:15:59.153Z,55.50
2018-02-24T13:18:26.594Z,52.80
2018-02-24T13:20:54.060Z,50.30
2018-02-24T13:23:21.506Z,49.70
2018-02-24T13:25:49.758Z,50.60
2018-02-24T13:28:17.237Z,50.60
2018-02-24T13:30:44.756Z,53.70
2018-02-24T13:33:12.216Z,55.60
2018-02-24T13:35:39.677Z,56.80
2018-02-24T13:38:07.505Z,55.40
2018-02-24T13:40:35.030Z,53.50
2018-02-24T13:43:02.528Z,54.80
2018-02-24T13:45:30.010Z,54.00
2018-02-24T13:47:57.461Z,54.60
2018-02-24T13:50:24.966Z,52.90
2018-02-24T13:52:53.201Z,58.10
2018-02-24T13:55:20.777Z,58.10
2018-02-24T13:57:48.619Z,58.10
2018-02-24T14:00:16.069Z,57.80
2018-02-24T14:02:43.514Z,57.50
2018-02-24T14:05:10.989Z,56.50
2018-02-24T14:07:38.437Z,58.00
2018-02-24T14:10:05.906Z,57.70
2018-02-24T14:12:33.362Z,58.00
2018-02-24T14:15:00.906Z,57.90
2018-02-24T14:17:28.467Z,58.90
2018-02-24T14:19:55.973Z,61.40
2018-02-24T14:22:23.482Z,63.40
2018-02-24T14:24:50.942Z,65.60
2018-02-24T14:27:18.419Z,69.10
2018-02-24T14:29:46.881Z,69.80
2018-02-24T14:32:14.374Z,69.90
2018-02-24T14:34:41.859Z,67.10
2018-02-24T14:37:09.309Z,67.50
2018-02-24T14:39:37.536Z,64.40
2018-02-24T14:42:05.003Z,64.30
2018-02-24T14:44:32.454Z,65.10
2018-02-24T14:46:59.936Z,65.40
2018-02-24T14:49:27.409Z,65.20
2018-02-24T14:51:55.682Z,64.60
2018-02-24T14:54:23.154Z,64.60
2018-02-24T14:56:50.607Z,62.50
2018-02-24T14:59:18.994Z,62.70
2018-02-24T15:01:47.386Z,63.30
2018-02-24T15:04:15.070Z,64.50
2018-02-24T15:06:42.566Z,64.40
2018-02-24T15:09:10.074Z,63.00
2018-02-24T15:11:38.416Z,59.60
2018-02-24T15:14:06.642Z,59.00
2018-02-24T15:16:34.089Z,58.90
2018-02-24T15:19:01.542Z,60.00
2018-02-24T15:21:28.989Z,61.50
2018-02-24T15:23:56.449Z,62.20
2018-02-24T15:26:23.910Z,62.00
2018-02-24T15:28:52.265Z,62.00
2018-02-24T15:31:19.705Z,63.70
2018-02-24T15:33:47.178Z,65.80
2018-02-24T15:36:15.412Z,67.10
2018-02-24T15:38:42.874Z,67.10
2018-02-24T15:41:10.373Z,67.90
2018-02-24T15:43:38.579Z,68.70
2018-02-24T15:46:06.023Z,68.70
2018-02-24T15:48:33.485Z,68.60
2018-02-24T15:51:00.938Z,65.50
2018-02-24T15:53:29.275Z,65.50
2018-02-24T15:55:58.477Z,66.10
2018-02-24T15:58:26.712Z,66.70
2018-02-24T16:00:54.164Z,66.60
2018-02-24T16:03:21.624Z,66.60
2018-02-24T16:05:49.113Z,66.80
2018-02-24T16:08:16.773Z,66.60
2018-02-24T16:10:44.234Z,66.00
2018-02-24T16:13:11.685Z,66.20
2018-02-24T16:15:39.155Z,67.20
2018-02-24T16:18:07.368Z,65.60
2018-02-24T16:20:34.826Z,65.60
2018-02-24T16:23:02.279Z,65.40
2018-02-24T16:25:29.754Z,66.20
2018-02-24T16:27:57.195Z,65.50
2018-02-24T16:30:24.694Z,64.60
2018-02-24T16:32:52.224Z,61.80
2018-02-24T16:35:19.661Z,61.90
2018-02-24T16:37:47.136Z,61.70
2018-02-24T16:40:14.599Z,61.90
2018-02-24T16:42:42.062Z,60.80
2018-02-24T16:45:09.506Z,60.70
2018-02-24T16:47:37.002Z,61.10
2018-02-24T16:50:04.454Z,62.40
2018-02-24T16:52:31.957Z,62.70
2018-02-24T16:54:59.363Z,63.60
2018-02-24T16:57:26.822Z,64.10
2018-02-24T16:59:54.295Z,65.30
2018-02-24T17:02:22.513Z,65.50
2018-02-24T17:04:49.978Z,65.40
2018-02-24T17:07:17.438Z,65.30
2018-02-24T17:09:44.910Z,65.60
2018-02-24T17:12:12.417Z,66.50
2018-02-24T17:14:39.822Z,66.70
2018-02-24T17:17:07.274Z,66.90
2018-02-24T17:19:34.734Z,67.00
2018-02-24T17:22:02.674Z,67.60
2018-02-24T17:24:30.148Z,68.80
2018-02-24T17:26:57.717Z,69.20
2018-02-24T17:29:25.189Z,70.00
2018-02-24T17:31:52.660Z,71.10
2018-02-24T17:34:20.138Z,72.00
2018-02-24T17:36:47.675Z,72.80
2018-02-24T17:39:15.141Z,74.00
2018-02-24T17:41:43.415Z,74.90
2018-02-24T17:44:11.657Z,75.40
2018-02-24T17:46:39.117Z,75.40
2018-02-24T17:49:06.584Z,76.00
2018-02-24T17:51:34.076Z,76.60
2018-02-24T17:54:01.530Z,76.90
2018-02-24T17:56:28.992Z,77.40
2018-02-24T17:58:56.446Z,77.80
2018-02-24T18:01:23.915Z,78.30
2018-02-24T18:03:51.398Z,78.40
2018-02-24T18:06:18.874Z,78.70
2018-02-24T18:08:46.326Z,79.00
2018-02-24T18:11:13.785Z,79.30
2018-02-24T18:13:41.242Z,79.70
2018-02-24T18:16:08.725Z,79.80
2018-02-24T18:18:36.178Z,80.20
2018-02-24T18:21:04.418Z,81.20
2018-02-24T18:23:31.910Z,81.20
2018-02-24T18:25:59.398Z,81.30
2018-02-24T18:28:26.887Z,81.80
2018-02-24T18:30:54.409Z,83.10
2018-02-24T18:33:21.809Z,83.10
2018-02-24T18:35:49.308Z,83.60
2018-02-24T18:38:16.774Z,84.50
2018-02-24T18:40:44.238Z,85.00
2018-02-24T18:43:11.718Z,85.40
2018-02-24T18:45:39.228Z,85.90
2018-02-24T18:48:06.709Z,86.20
2018-02-24T18:50:34.157Z,87.00
2018-02-24T18:53:01.618Z,87.20
2018-02-24T18:55:29.158Z,87.10
2018-02-24T18:57:56.789Z,86.30
2018-02-24T19:00:25.273Z,86.40
2018-02-24T19:02:52.760Z,86.90
2018-02-24T19:05:20.223Z,87.00
2018-02-24T19:07:47.683Z,87.30
2018-02-24T19:10:15.926Z,88.10
2018-02-24T19:12:43.372Z,88.10
2018-02-24T19:15:10.854Z,87.90
2018-02-24T19:17:38.321Z,88.20
2018-02-24T19:20:06.573Z,88.80
2018-02-24T19:22:34.073Z,88.70
2018-02-24T19:25:02.322Z,88.90
2018-02-24T19:27:29.805Z,88.90
2018-02-24T19:29:57.276Z,89.10
2018-02-24T19:32:24.874Z,89.30
2018-02-24T19:34:52.378Z,89.60
2018-02-24T19:37:20.612Z,90.00
2018-02-24T19:39:48.098Z,90.00
2018-02-24T19:42:16.369Z,90.30
2018-02-24T19:44:43.853Z,90.30
2018-02-24T19:47:11.310Z,90.30
2018-02-24T19:49:38.793Z,90.30
2018-02-24T19:52:06.275Z,90.50
2018-02-24T19:54:33.739Z,90.70
2018-02-24T19:57:01.205Z,91.00
2018-02-24T19:59:28.666Z,91.40
2018-02-24T20:01:56.897Z,91.80
2018-02-24T20:04:24.366Z,91.70
2018-02-24T20:06:51.818Z,91.90
2018-02-24T20:09:19.287Z,91.80
2018-02-24T20:11:46.756Z,92.00
2018-02-24T20:14:14.227Z,92.10
2018-02-24T20:16:42.454Z,92.40
2018-02-24T20:19:09.915Z,92.40
2018-02-24T20:21:37.395Z,92.40
2018-02-24T20:24:04.983Z,92.40
2018-02-24T20:26:32.441Z,92.50
2018-02-24T20:28:59.953Z,92.70
2018-02-24T20:31:27.452Z,92.50
2018-02-24T20:33:54.939Z,92.50
2018-02-24T20:36:22.423Z,92.50
2018-02-24T20:38:49.951Z,92.50
2018-02-24T20:41:17.419Z,92.50
2018-02-24T20:43:44.921Z,92.60
2018-02-24T20:46:12.405Z,92.60
2018-02-24T20:48:39.863Z,92.80
2018-02-24T20:51:08.276Z,92.90
2018-02-24T20:53:35.742Z,93.10
2018-02-24T20:56:03.221Z,93.00
2018-02-24T20:58:30.786Z,93.10
2018-02-24T21:00:58.272Z,93.10
2018-02-24T21:03:25.766Z,93.20
2018-02-24T21:05:53.576Z,93.30
2018-02-24T21:08:25.435Z,93.30
2018-02-24T21:10:53.069Z,93.50
2018-02-24T21:13:20.546Z,93.60
2018-02-24T21:15:48.047Z,93.50
2018-02-24T21:18:15.711Z,93.60
2018-02-24T21:20:43.017Z,93.60
2018-02-24T21:23:10.482Z,93.70
2018-02-24T21:25:37.963Z,93.90
2018-02-24T21:28:05.411Z,94.00
2018-02-24T21:30:32.885Z,94.10
2018-02-24T21:33:01.473Z,94.20
2018-02-24T21:35:28.978Z,94.30
2018-02-24T21:37:56.452Z,94.30
2018-02-24T21:40:23.908Z,94.50
2018-02-24T21:42:51.358Z,94.60
2018-02-24T21:45:18.813Z,94.90
2018-02-24T21:47:46.318Z,95.00
2018-02-24T21:50:13.842Z,95.00
2018-02-24T21:52:41.290Z,95.20
2018-02-24T21:55:08.835Z,95.30
2018-02-24T21:57:36.285Z,95.40
2018-02-24T22:00:03.823Z,95.40
2018-02-24T22:02:31.200Z,95.50
2018-02-24T22:04:58.667Z,95.70
2018-02-24T22:07:26.109Z,95.80
2018-02-24T22:09:53.578Z,96.10
2018-02-24T22:12:21.036Z,95.90
2018-02-24T22:14:48.513Z,95.90
2018-02-24T22:17:15.961Z,95.90
2018-02-24T22:19:43.445Z,95.80
2018-02-24T22:22:10.914Z,95.80
2018-02-24T22:24:38.353Z,95.80
2018-02-24T22:27:05.813Z,95.80
2018-02-24T22:29:33.319Z,95.80
2018-02-24T22:32:00.785Z,95.70
2018-02-24T22:34:28.432Z,95.90
2018-02-24T22:36:56.030Z,95.80
2018-02-24T22:39:23.470Z,95.80
2018-02-24T22:41:50.950Z,95.80
2018-02-24T22:44:19.190Z,95.80
2018-02-24T22:46:46.654Z,95.80
2018-02-24T22:49:14.107Z,95.80
2018-02-24T22:51:42.410Z,95.90
2018-02-24T22:54:09.861Z,96.10
2018-02-24T22:56:37.348Z,96.40
2018-02-24T22:59:04.814Z,96.10
2018-02-24T23:01:32.269Z,96.00
2018-02-24T23:03:59.725Z,96.00
2018-02-24T23:06:28.738Z,96.00
2018-02-24T23:08:56.196Z,96.00
2018-02-24T23:11:23.678Z,96.20
2018-02-24T23:13:51.139Z,96.20
2018-02-24T23:16:18.599Z,96.40
2018-02-24T23:18:46.065Z,96.40
2018-02-24T23:21:13.610Z,96.30
2018-02-24T23:23:41.104Z,96.40
2018-02-24T23:26:08.599Z,96.30
2018-02-24T23:28:36.981Z,96.40
2018-02-24T23:31:04.466Z,96.40
2018-02-24T23:33:32.098Z,96.50
2018-02-24T23:35:59.845Z,96.30
2018-02-24T23:38:27.315Z,96.40
2018-02-24T23:40:54.865Z,96.30
2018-02-24T23:43:22.362Z,96.40
2018-02-24T23:45:49.866Z,96.40
2018-02-24T23:48:17.346Z,96.40
2018-02-24T23:50:44.830Z,96.40
2018-02-24T23:53:12.298Z,96.50
2018-02-24T23:55:39.790Z,96.60
2018-02-24T23:58:08.046Z,96.60
